D/T METAR WX W/DIR W/SPE G/SPE TEMP DEWP
16/01/19 02:50 EGQL 160250Z 25020G30KT 8000 -RA BKN021 SCT070 08/07 Q0995 WHT -RA WSW (250°) 23.0mph 34.5mph 8°C 7°C
16/01/19 01:50 EGQL 160150Z 24022KT 9999 -SHRA BKN020 BKN050 09/06 Q0995 WHT -SHRA WSW (240°) 25.3mph 9°C 6°C
16/01/19 00:50 EGQL 160050Z 24022KT 9999 SCT021 BKN029 BKN050 09/06 Q0996 WHT WSW (240°) 25.3mph 9°C 6°C
15/01/19 23:50 EGQL 152350Z 25021KT 9999 BKN020 BKN028 09/06 Q0997 WHT WSW (250°) 24.2mph 9°C 6°C
15/01/19 22:50 EGQL 152250Z 25018KT 9999 FEW020 BKN024 09/07 Q0998 WHT WSW (250°) 20.7mph 9°C 7°C
15/01/19 21:50 EGQL 152150Z 25018KT 9999 BKN017 SCT050 09/07 Q0999 WHT WSW (250°) 20.7mph 9°C 7°C
15/01/19 20:50 EGQL 152050Z 25019KT CAVOK 09/06 Q1000 BLU WSW (250°) 21.9mph 9°C 6°C
15/01/19 19:50 EGQL 151950Z 25020KT 9999 FEW016 08/06 Q1000 BLU WSW (250°) 23.0mph 8°C 6°C
15/01/19 18:50 EGQL 151850Z 26013KT 9999 BKN015 BKN024 09/06 Q1002 WHT W (260°) 15.0mph 9°C 6°C
15/01/19 17:50 EGQL 151750Z 25016KT 9999 SCT016 BKN050 08/06 Q1003 WHT WSW (250°) 18.4mph 8°C 6°C
15/01/19 16:50 EGQL 151650Z 26019KT 9999 SCT044 08/05 Q1003 BLU W (260°) 21.9mph 8°C 5°C
15/01/19 15:50 EGQL 151550Z 26018KT 9999 BKN048 09/06 Q1004 BLU W (260°) 20.7mph 9°C 6°C
15/01/19 14:50 EGQL 151450Z 26026KT 9999 FEW015 SCT070 09/07 Q1004 BLU W (260°) 29.9mph 9°C 7°C
15/01/19 13:50 EGQL 151350Z AUTO 26017G27KT 9999 SCT016/// SCT029/// 10/07 Q1005 W (260°) 19.6mph 31.1mph 10°C 7°C
15/01/19 12:50 EGQL 151250Z 25020KT 9999 SCT016 SCT080 09/07 Q1006 WHT WSW (250°) 23.0mph 9°C 7°C
15/01/19 11:50 EGQL 151150Z 25018KT 9999 SCT040 SCT090 09/07 Q1006 BLU WSW (250°) 20.7mph 9°C 7°C
15/01/19 10:50 EGQL 151050Z 26013KT 9999 FEW040 SCT090 10/07 Q1007 BLU W (260°) 15.0mph 10°C 7°C
15/01/19 09:50 EGQL 150950Z 27018KT 9999 FEW040 SCT080 10/07 Q1007 BLU W (270°) 20.7mph 10°C 7°C
15/01/19 08:50 EGQL 150850Z 26019KT 9999 FEW030 SCT050 10/08 Q1007 BLU W (260°) 21.9mph 10°C 8°C
15/01/19 07:50 EGQL 150750Z 26013KT 9999 FEW040 SCT090 09/08 Q1007 BLU W (260°) 15.0mph 9°C 8°C
15/01/19 06:50 EGQL 150650Z 25008KT 9999 SCT048 SCT090 09/08 Q1007 BLU WSW (250°) 9.2mph 9°C 8°C
15/01/19 05:50 EGQL 150550Z 25013KT 9999 FEW048 08/07 Q1007 BLU WSW (250°) 15.0mph 8°C 7°C
15/01/19 04:50 EGQL 150450Z 26014KT 9999 FEW013 08/07 Q1008 BLU W (260°) 16.1mph 8°C 7°C
15/01/19 03:50 EGQL 150350Z 25018KT 9999 FEW014 SCT220 08/07 Q1008 BLU WSW (250°) 20.7mph 8°C 7°C
15/01/19 02:50 EGQL 150250Z 26017KT CAVOK 08/07 Q1009 BLU W (260°) 19.6mph 8°C 7°C
15/01/19 01:50 EGQL 150150Z 26018KT CAVOK 08/06 Q1009 BLU W (260°) 20.7mph 8°C 6°C
15/01/19 00:50 EGQL 150050Z 26018KT CAVOK 08/06 Q1010 BLU W (260°) 20.7mph 8°C 6°C
14/01/19 23:50 EGQL 142350Z 26017KT CAVOK 08/06 Q1010 BLU W (260°) 19.6mph 8°C 6°C
14/01/19 22:50 EGQL 142250Z 26015KT CAVOK 07/06 Q1011 BLU W (260°) 17.3mph 7°C 6°C
14/01/19 21:50 EGQL 142150Z 25014KT 9999 FEW012 SCT022 BKN130 07/06 Q1012 WHT WSW (250°) 16.1mph 7°C 6°C
14/01/19 20:50 EGQL 142050Z 25007KT 9999 FEW019 BKN130 05/04 Q1013 BLU WSW (250°) 8.1mph 5°C 4°C
14/01/19 19:50 EGQL 141950Z 25011KT CAVOK 05/04 Q1014 BLU WSW (250°) 12.7mph 5°C 4°C
14/01/19 18:50 EGQL 141850Z 25009KT CAVOK 05/03 Q1015 BLU WSW (250°) 10.4mph 5°C 3°C
14/01/19 17:50 EGQL 141750Z 25007KT CAVOK 04/03 Q1015 BLU WSW (250°) 8.1mph 4°C 3°C
14/01/19 16:50 EGQL 141650Z 26010KT CAVOK 05/03 Q1015 BLU W (260°) 11.5mph 5°C 3°C
14/01/19 15:50 EGQL 141550Z 26009KT CAVOK 05/03 Q1015 BLU W (260°) 10.4mph 5°C 3°C
14/01/19 14:50 EGQL 141450Z 26009KT CAVOK 05/03 Q1016 BLU W (260°) 10.4mph 5°C 3°C
14/01/19 13:50 EGQL 141350Z 25008KT CAVOK 06/04 Q1017 BLU WSW (250°) 9.2mph 6°C 4°C
14/01/19 12:50 EGQL 141250Z 27005KT CAVOK 05/03 Q1017 BLU W (270°) 5.8mph 5°C 3°C
14/01/19 11:50 EGQL 141150Z 25005KT CAVOK 04/02 Q1018 BLU WSW (250°) 5.8mph 4°C 2°C
14/01/19 10:50 EGQL 141050Z 28002KT CAVOK 02/02 Q1018 BLU W (280°) 2.3mph 2°C 2°C
14/01/19 09:39 EGQL 140939Z 27004KT 9999 FEW220 M01/M01 Q1018 BLU W (270°) 4.6mph -1°C -1°C
14/01/19 08:50 EGQL 140850Z 26004KT 9999 5000W VCFG FEW030 M00/M00 Q1018 WHT VCFG W (260°) 4.6mph 0°C 0°C
14/01/19 07:50 EGQL 140750Z 28005KT 9999 SCT018 00/00 Q1018 WHT W (280°) 5.8mph 0°C 0°C
14/01/19 06:50 EGQL 140650Z 28004KT 9999 BKN024 BKN180 02/01 Q1017 WHT W (280°) 4.6mph 2°C 1°C
14/01/19 05:50 EGQL 140550Z 26004KT 9999 BKN029 BKN050 02/01 Q1016 BLU W (260°) 4.6mph 2°C 1°C
14/01/19 04:50 EGQL 140450Z 29003KT 9999 BKN027 BKN050 02/02 Q1016 BLU WNW (290°) 3.5mph 2°C 2°C
14/01/19 03:50 EGQL 140350Z 29002KT 9999 FEW034 BKN045 03/02 Q1015 BLU WNW (290°) 2.3mph 3°C 2°C
14/01/19 02:50 EGQL 140250Z 03003KT 9999 SCT031 BKN042 BKN050 03/02 Q1015 BLU NNE (30°) 3.5mph 3°C 2°C
14/01/19 01:50 EGQL 140150Z 05001KT 8000 -RA FEW028 BKN034 BKN060 04/03 Q1014 BLU -RA NE (50°) 1.2mph 4°C 3°C
14/01/19 00:50 EGQL 140050Z 35002KT 9999 -RA BKN027 04/03 Q1013 BLU -RA N (350°) 2.3mph 4°C 3°C
13/01/19 23:50 EGQL 132350Z 05009KT 9999 -SHRA SCT023 BKN041 05/03 Q1011 WHT -SHRA NE (50°) 10.4mph 5°C 3°C
13/01/19 22:50 EGQL 132250Z 29010KT 9999 SCT045 07/02 Q1009 BLU WNW (290°) 11.5mph 7°C 2°C
13/01/19 21:50 EGQL 132150Z 28008KT 9999 FEW040 06/01 Q1008 BLU W (280°) 9.2mph 6°C 1°C
13/01/19 20:50 EGQL 132050Z 29007KT 9999 BKN040 06/01 Q1007 BLU WNW (290°) 8.1mph 6°C 1°C
13/01/19 19:50 EGQL 131950Z 29009KT 9999 FEW040 07/01 Q1006 BLU WNW (290°) 10.4mph 7°C 1°C
13/01/19 18:50 EGQL 131850Z 30015KT 9999 FEW040 07/01 Q1005 BLU WNW (300°) 17.3mph 7°C 1°C
13/01/19 17:50 EGQL 131750Z 29016KT CAVOK 07/02 Q1004 BLU WNW (290°) 18.4mph 7°C 2°C
13/01/19 16:50 EGQL 131650Z 30019G29KT CAVOK 08/02 Q1003 BLU WNW (300°) 21.9mph 33.4mph 8°C 2°C
13/01/19 15:50 EGQL 131550Z 30018KT CAVOK 08/02 Q1003 BLU WNW (300°) 20.7mph 8°C 2°C
13/01/19 14:50 EGQL 131450Z 31018G28KT CAVOK 09/02 Q1002 BLU NW (310°) 20.7mph 32.2mph 9°C 2°C
13/01/19 12:50 EGQL 131250Z 30019G32KT CAVOK 10/02 Q1003 BLU WNW (300°) 21.9mph 36.8mph 10°C 2°C
13/01/19 10:50 EGQL 131050Z 30022G33KT CAVOK 10/02 Q1003 BLU WNW (300°) 25.3mph 38.0mph 10°C 2°C
13/01/19 09:50 EGQL 130950Z 30021G31KT CAVOK 10/04 Q1002 BLU WNW (300°) 24.2mph 35.7mph 10°C 4°C
13/01/19 08:50 EGQL 130850Z 30022G36KT CAVOK 11/04 Q1001 BLU WNW (300°) 25.3mph 41.4mph 11°C 4°C
13/01/19 07:50 EGQL 130750Z 28024KT CAVOK 11/06 Q1001 BLU W (280°) 27.6mph 11°C 6°C
13/01/19 05:50 EGQL 130550Z 27020KT 9999 FEW040 11/07 Q1002 BLU W (270°) 23.0mph 11°C 7°C
13/01/19 01:50 EGQL 130150Z 27019KT 9999 SCT025 11//08 Q1005 BLU W (270°) 21.9mph 0°C 0°C
13/01/19 00:50 EGQL 130050Z /////KT CAVOK ///// Q//// BLU N (0°) 0°C 0°C
12/01/19 23:50 EGQL 122350Z 25022KT 9999 SCT035 10/08 Q1006 BLU WSW (250°) 25.3mph 10°C 8°C
12/01/19 22:50 EGQL 122250Z 26017KT 9999 BKN035 11/08 Q1007 BLU W (260°) 19.6mph 11°C 8°C
12/01/19 21:50 EGQL 122150Z 26017KT 9999 FEW038 SCT060 11/08 Q1007 BLU W (260°) 19.6mph 11°C 8°C
12/01/19 20:50 EGQL 122050Z 27016KT 9999 OVC038 11/08 Q1008 BLU W (270°) 18.4mph 11°C 8°C
12/01/19 19:50 EGQL 121950Z 26013KT 9999 BKN036 10/07 Q1008 BLU W (260°) 15.0mph 10°C 7°C
12/01/19 18:50 EGQL 121850Z 25011KT 9999 BKN037 BKN190 10/07 Q1009 BLU WSW (250°) 12.7mph 10°C 7°C
12/01/19 17:50 EGQL 121750Z 26013KT 9999 FEW037 BKN190 09/07 Q1009 BLU W (260°) 15.0mph 9°C 7°C
12/01/19 16:50 EGQL 121650Z 26007KT 9999 BKN035 BKN130 10/07 Q1009 BLU W (260°) 8.1mph 10°C 7°C
12/01/19 15:50 EGQL 121550Z 26007KT 9999 BKN035 09/07 Q1010 BLU W (260°) 8.1mph 9°C 7°C
12/01/19 14:50 EGQL 121450Z 25003KT 9999 BKN038 10/06 Q1010 BLU WSW (250°) 3.5mph 10°C 6°C
12/01/19 13:50 EGQL 121350Z 28019KT CAVOK 10/04 Q1010 BLU W (280°) 21.9mph 10°C 4°C
12/01/19 12:50 EGQL 121250Z 28020KT CAVOK 10/04 Q1011 BLU W (280°) 23.0mph 10°C 4°C
12/01/19 11:50 EGQL 121150Z 28022KT CAVOK 10/04 Q1012 BLU W (280°) 25.3mph 10°C 4°C
12/01/19 10:50 EGQL 121050Z 28014KT CAVOK 10/04 Q1012 BLU W (280°) 16.1mph 10°C 4°C
12/01/19 09:50 EGQL 120950Z 28013KT 9999 SCT040 09/04 Q1013 BLU W (280°) 15.0mph 9°C 4°C
12/01/19 08:50 EGQL 120850Z 29010KT 9999 FEW039 BKN200 09/03 Q1013 BLU WNW (290°) 11.5mph 9°C 3°C
12/01/19 07:50 EGQL 120750Z 28011KT 9999 FEW042 BKN200 08/03 Q1013 BLU W (280°) 12.7mph 8°C 3°C
12/01/19 06:50 EGQL 120650Z 25009KT 9999 SCT039 SCT240 05/04 Q1013 BLU WSW (250°) 10.4mph 5°C 4°C
12/01/19 05:50 EGQL 120550Z 28007KT 9999 BKN037 08/03 Q1014 BLU W (280°) 8.1mph 8°C 3°C
12/01/19 04:50 EGQL 120450Z 28012KT 9999 FEW040 08/04 Q1014 BLU W (280°) 13.8mph 8°C 4°C
12/01/19 03:50 EGQL 120350Z 28013KT 9999 BKN041 SCT048 09/04 Q1014 BLU W (280°) 15.0mph 9°C 4°C
12/01/19 02:50 EGQL 120250Z 28015KT CAVOK 09/03 Q1014 BLU W (280°) 17.3mph 9°C 3°C
12/01/19 01:50 EGQL 120150Z 26016KT 9999 FEW022 09/07 Q1014 BLU W (260°) 18.4mph 9°C 7°C
12/01/19 00:50 EGQL 120050Z 26016KT 9999 BKN012 SCT032 08/07 Q1015 GRN W (260°) 18.4mph 8°C 7°C
11/01/19 23:50 EGQL 112350Z 25015KT 9999 SCT011 SCT024 08/07 Q1016 GRN WSW (250°) 17.3mph 8°C 7°C
11/01/19 22:50 EGQL 112250Z 25013KT 9999 FEW016 07/06 Q1018 BLU WSW (250°) 15.0mph 7°C 6°C
11/01/19 21:50 EGQL 112150Z 25015KT 9999 FEW032 BKN200 07/05 Q1020 BLU WSW (250°) 17.3mph 7°C 5°C
11/01/19 20:50 EGQL 112050Z 24006KT 9999 SCT027 BKN240 06/05 Q1021 BLU WSW (240°) 6.9mph 6°C 5°C
11/01/19 19:50 EGQL 111950Z 25010KT 9999 BKN036 07/06 Q1022 BLU WSW (250°) 11.5mph 7°C 6°C
11/01/19 18:50 EGQL 111850Z 25009KT 9999 BKN036 07/06 Q1023 BLU WSW (250°) 10.4mph 7°C 6°C
11/01/19 17:50 EGQL 111750Z 25011KT 9999 OVC034 08/06 Q1024 BLU WSW (250°) 12.7mph 8°C 6°C
11/01/19 16:50 EGQL 111650Z 25010KT 9999 OVC034 08/06 Q1024 BLU WSW (250°) 11.5mph 8°C 6°C
11/01/19 15:50 EGQL 111550Z 26006KT 9999 OVC035 08/05 Q1025 BLU W (260°) 6.9mph 8°C 5°C
11/01/19 14:50 EGQL 111450Z 25009KT 9999 BKN035 08/05 Q1026 BLU WSW (250°) 10.4mph 8°C 5°C
11/01/19 13:50 EGQL 111350Z 26008KT 9999 SCT030 BKN050 09/05 Q1026 BLU W (260°) 9.2mph 9°C 5°C
11/01/19 12:50 EGQL 111250Z 26010KT 9999 BKN038 09/04 Q1027 BLU W (260°) 11.5mph 9°C 4°C
11/01/19 11:50 EGQL 111150Z 26012KT 9999 BKN038 08/04 Q1028 BLU W (260°) 13.8mph 8°C 4°C
11/01/19 10:50 EGQL 111050Z 27011KT 9999 BKN037 07/04 Q1028 BLU W (270°) 12.7mph 7°C 4°C
11/01/19 09:50 EGQL 110950Z 27007KT 9999 SCT039 SCT140 06/04 Q1029 BLU W (270°) 8.1mph 6°C 4°C
11/01/19 08:50 EGQL 110850Z 25010KT 9999 SCT035 04/02 Q1029 BLU WSW (250°) 11.5mph 4°C 2°C
11/01/19 07:50 EGQL 110750Z 29007KT 9999 FEW040 06/03 Q1029 BLU WNW (290°) 8.1mph 6°C 3°C
11/01/19 06:50 EGQL 110650Z 29008KT 9999 FEW040 07/03 Q1028 BLU WNW (290°) 9.2mph 7°C 3°C
11/01/19 05:50 EGQL 110550Z 29006KT 9999 FEW039 07/03 Q1028 BLU WNW (290°) 6.9mph 7°C 3°C
11/01/19 04:50 EGQL 110450Z 26006KT 9999 BKN035 06/03 Q1029 BLU W (260°) 6.9mph 6°C 3°C
11/01/19 03:50 EGQL 110350Z 28005KT 9999 BKN037 08/04 Q1029 BLU W (280°) 5.8mph 8°C 4°C
11/01/19 02:50 EGQL 110250Z 26006KT 9999 BKN038 05/03 Q1029 BLU W (260°) 6.9mph 5°C 3°C
11/01/19 01:50 EGQL 110150Z 26007KT 9999 BKN036 07/04 Q1028 BLU W (260°) 8.1mph 7°C 4°C
11/01/19 00:50 EGQL 110050Z 28009KT 9999 BKN036 08/04 Q1029 BLU W (280°) 10.4mph 8°C 4°C
10/01/19 23:50 EGQL 102350Z 25007KT 9999 BKN035 07/04 Q1029 BLU WSW (250°) 8.1mph 7°C 4°C
10/01/19 22:50 EGQL 102250Z 27004KT 9999 BKN035 07/04 Q1029 BLU W (270°) 4.6mph 7°C 4°C
10/01/19 21:50 EGQL 102150Z 26007KT 9999 BKN037 BKN048 06/04 Q1029 BLU W (260°) 8.1mph 6°C 4°C
10/01/19 20:50 EGQL 102050Z 26009KT 9999 BKN039 07/05 Q1029 BLU W (260°) 10.4mph 7°C 5°C
10/01/19 19:50 EGQL 101950Z 25007KT 9999 BKN039 07/04 Q1029 BLU WSW (250°) 8.1mph 7°C 4°C
10/01/19 18:50 EGQL 101850Z 28007KT 9999 BKN043 08/04 Q1029 BLU W (280°) 8.1mph 8°C 4°C
10/01/19 17:50 EGQL 101750Z AUTO 29010KT 9999 BKN046/// 08/05 Q1029 WNW (290°) 11.5mph 8°C 5°C
10/01/19 16:50 EGQL 101650Z 28008KT CAVOK 08/04 Q1028 BLU W (280°) 9.2mph 8°C 4°C
10/01/19 15:50 EGQL 101550Z 30007KT CAVOK 09/04 Q1028 BLU WNW (300°) 8.1mph 9°C 4°C
10/01/19 14:50 EGQL 101450Z 30006KT CAVOK 10/05 Q1028 BLU WNW (300°) 6.9mph 10°C 5°C
10/01/19 13:50 EGQL 101350Z 30009KT CAVOK 10/06 Q1028 BLU WNW (300°) 10.4mph 10°C 6°C
10/01/19 12:50 EGQL 101250Z 30009KT CAVOK 10/06 Q1028 BLU WNW (300°) 10.4mph 10°C 6°C
10/01/19 11:50 EGQL 101150Z 30009KT CAVOK 10/06 Q1029 BLU WNW (300°) 10.4mph 10°C 6°C
10/01/19 10:50 EGQL 101050Z 30012KT CAVOK 10/06 Q1028 BLU WNW (300°) 13.8mph 10°C 6°C
10/01/19 09:50 EGQL 100950Z 28009KT CAVOK 09/06 Q1028 BLU W (280°) 10.4mph 9°C 6°C
10/01/19 08:50 EGQL 100850Z 29008KT CAVOK 10/06 Q1028 BLU WNW (290°) 9.2mph 10°C 6°C
10/01/19 07:50 EGQL 100750Z 29008KT CAVOK 09/06 Q1028 BLU WNW (290°) 9.2mph 9°C 6°C
10/01/19 06:50 EGQL 100650Z 29009KT CAVOK 09/06 Q1027 BLU WNW (290°) 10.4mph 9°C 6°C
10/01/19 05:50 EGQL 100550Z 23010KT CAVOK 07/05 Q1028 BLU SW (230°) 11.5mph 7°C 5°C
10/01/19 04:50 EGQL 100450Z 25008KT CAVOK 07/05 Q1028 BLU WSW (250°) 9.2mph 7°C 5°C
10/01/19 03:50 EGQL 100350Z 29008KT CAVOK 08/05 Q1028 BLU WNW (290°) 9.2mph 8°C 5°C
10/01/19 02:50 EGQL 100250Z 27010KT CAVOK 08/05 Q1028 BLU W (270°) 11.5mph 8°C 5°C
10/01/19 01:50 EGQL 100150Z 26007KT CAVOK 07/04 Q1028 BLU W (260°) 8.1mph 7°C 4°C
10/01/19 00:50 EGQL 100050Z 26009KT 9999 SCT039 BKN060 06/04 Q1028 BLU W (260°) 10.4mph 6°C 4°C
9/01/19 23:50 EGQL 092350Z 26008KT 9999 FEW030 SCT041 BKN070 04/02 Q1029 BLU W (260°) 9.2mph 4°C 2°C
9/01/19 22:50 EGQL 092250Z 26007KT 9999 SCT032 BKN080 04/02 Q1029 BLU W (260°) 8.1mph 4°C 2°C
9/01/19 21:50 EGQL 092150Z 26008KT 9999 BKN029 BKN080 04/01 Q1030 BLU W (260°) 9.2mph 4°C 1°C